Time;durP1;ratioP1;P1;durP2;ratioP2;P2;SDS_P1;SDS_P2;PMS_P1;PMS_P2;Temp;Humidity;BMP_temperature;BMP_pressure;BME280_temperature;BME280_humidity;BME280_pressure;Samples;Min_cycle;Max_cycle;Signal;HPM_P1;HPM_P2
2021/09/15 00:02:00;;;;;;;;;;;;;;;18.57;47.30;100862.66;5120513;28;846;-57
2021/09/15 00:04:26;;;;;;;;;;;;;;;18.59;47.19;100872.28;5118317;28;779;-54
2021/09/15 00:06:51;;;;;;;;;;;;;;;19.06;50.54;100872.78;5119255;27;792;-54
2021/09/15 00:09:17;;;;;;;;;;;;;;;19.42;53.40;100877.16;5120081;28;1027;-56
2021/09/15 00:11:42;;;;;;;;;;;;;;;19.80;54.80;100863.56;5119767;28;811;-43
2021/09/15 00:14:08;;;;;;;;;;;;;;;19.85;56.61;100870.97;5119811;27;1024;-49
2021/09/15 00:16:33;;;;;;;;;;;;;;;20.12;57.24;100865.66;5120308;28;783;-52
2021/09/15 00:18:59;;;;;;;;;;;;;;;20.66;56.48;100880.13;5119287;28;1913;-56
2021/09/15 00:21:24;;;;;;;;;;;;;;;20.82;56.69;100877.97;5125832;27;1598;-55
2021/09/15 00:23:50;;;;;;;;;;;;;;;21.11;56.32;100871.47;5140198;27;751;-52
2021/09/15 00:26:16;;;;;;;;;;;;;;;21.28;56.54;100879.19;5140290;27;821;-58
2021/09/15 00:28:41;;;;;;;;;;;;;;;21.45;56.20;100873.06;5136055;27;1019;-54
2021/09/15 00:31:07;;;;;;;;;;;;;;;21.49;56.33;100884.34;5119326;28;751;-56
2021/09/15 00:33:32;;;;;;;;;;;;;;;21.70;55.79;100874.56;5119677;28;802;-54
2021/09/15 00:35:57;;;;;;;;;;;;;;;21.64;55.64;100881.34;5119579;28;811;-53
2021/09/15 00:38:23;;;;;;;;;;;;;;;20.87;54.37;100874.31;5119439;28;1905;-55
2021/09/15 00:40:49;;;;;;;;;;;;;;;20.22;52.48;100866.66;5119317;28;807;-57
2021/09/15 00:43:14;;;;;;;;;;;;;;;19.63;49.71;100869.53;5118653;27;1103;-57
2021/09/15 00:45:40;;;;;;;;;;;;;;;19.00;48.12;100873.13;5119224;27;961;-56
2021/09/15 00:48:05;;;;;;;;;;;;;;;18.83;46.98;100873.50;5117784;28;855;-54
2021/09/15 00:50:31;;;;;;;;;;;;;;;18.96;47.69;100872.88;5118115;28;885;-53
2021/09/15 00:52:59;;;;;;;;;;;;;;;19.25;51.37;100870.16;5118605;27;1207;-54
2021/09/15 00:55:26;;;;;;;;;;;;;;;19.88;52.78;100865.69;5100903;28;863;-54
2021/09/15 00:57:55;;;;;;;;;;;;;;;20.07;54.67;100865.72;5118225;28;1914;-49
2021/09/15 01:00:22;;;;;;;;;;;;;;;20.25;56.06;100872.41;5134284;27;1148;-55
2021/09/15 01:02:48;;;;;;;;;;;;;;;20.46;56.69;100861.09;5137936;27;846;-54
2021/09/15 01:05:14;;;;;;;;;;;;;;;20.91;56.18;100869.00;5138088;27;1367;-55
2021/09/15 01:07:42;;;;;;;;;;;;;;;20.88;56.80;100866.84;5139646;27;797;-45
2021/09/15 01:10:09;;;;;;;;;;;;;;;21.27;56.17;100868.44;5137807;27;1136;-57
2021/09/15 01:12:41;;;;;;;;;;;;;;;21.31;56.37;100872.22;5137540;27;1231;-53
2021/09/15 01:15:27;;;;;;;;;;;;;;;21.08;57.42;100855.44;5089493;28;1006;-56
2021/09/15 01:18:15;;;;;;;;;;;;;;;21.36;56.54;100863.81;5118589;28;1909;-45
2021/09/15 01:20:59;;;;;;;;;;;;;;;21.12;55.72;100864.78;5122439;27;1596;-54
2021/09/15 01:23:40;;;;;;;;;;;;;;;20.41;53.84;100863.91;5139283;27;803;-47
2021/09/15 01:26:24;;;;;;;;;;;;;;;19.71;51.17;100857.03;5138831;27;625;-57
2021/09/15 01:29:18;;;;;;;;;;;;;;;19.14;49.11;100858.41;5107997;27;1061;-57
2021/09/15 01:32:07;;;;;;;;;;;;;;;19.02;47.55;100857.94;5100734;28;1144;-56
2021/09/15 01:34:36;;;;;;;;;;;;;;;19.03;48.79;100858.75;5100350;28;1426;-55
2021/09/15 01:37:04;;;;;;;;;;;;;;;19.55;51.88;100856.38;5100854;28;1330;-56
2021/09/15 01:39:32;;;;;;;;;;;;;;;19.82;53.92;100856.66;5117141;28;1976;-45
2021/09/15 01:42:01;;;;;;;;;;;;;;;19.93;55.94;100859.28;5117462;28;1233;-53
2021/09/15 01:44:33;;;;;;;;;;;;;;;20.49;55.81;100868.78;5126132;27;1242;-55
2021/09/15 01:47:01;;;;;;;;;;;;;;;20.90;55.59;100872.88;5137201;27;923;-53
2021/09/15 01:49:31;;;;;;;;;;;;;;;21.10;55.64;100864.28;5137515;27;1315;-56
2021/09/15 01:51:57;;;;;;;;;;;;;;;21.33;55.69;100875.50;5137975;27;1108;-56
2021/09/15 01:54:23;;;;;;;;;;;;;;;21.44;55.65;100876.97;5137498;27;1196;-58
2021/09/15 01:56:48;;;;;;;;;;;;;;;21.46;56.08;100874.72;5137553;27;1160;-57
2021/09/15 01:59:43;;;;;;;;;;;;;;;21.73;55.55;100872.31;5127002;27;1902;-56
2021/09/15 02:02:27;;;;;;;;;;;;;;;21.87;54.91;100873.97;5117433;28;621;-53
2021/09/15 02:04:56;;;;;;;;;;;;;;;21.35;55.42;100879.59;5117975;28;1090;-55
2021/09/15 02:07:31;;;;;;;;;;;;;;;20.43;54.16;100879.06;5117050;28;1199;-51
2021/09/15 02:10:29;;;;;;;;;;;;;;;19.56;51.22;100878.16;5117686;28;1166;-56
2021/09/15 02:12:54;;;;;;;;;;;;;;;19.07;48.97;100881.88;5116910;28;1152;-53
2021/09/15 02:15:21;;;;;;;;;;;;;;;18.64;47.22;100880.50;5116943;27;984;-50
2021/09/15 02:17:50;;;;;;;;;;;;;;;18.91;48.72;100870.97;5116761;27;1980;-54
2021/09/15 02:20:38;;;;;;;;;;;;;;;19.39;52.31;100886.88;5118127;27;1550;-57
2021/09/15 02:23:12;;;;;;;;;;;;;;;19.79;54.21;100886.72;5120385;27;1145;-55
2021/09/15 02:25:56;;;;;;;;;;;;;;;20.11;55.64;100886.09;5137613;27;645;-59
2021/09/15 02:28:33;;;;;;;;;;;;;;;20.43;56.25;100886.53;5119978;27;1275;-54
2021/09/15 02:31:18;;;;;;;;;;;;;;;20.83;55.98;100887.09;5117051;28;1481;-54
2021/09/15 02:34:02;;;;;;;;;;;;;;;20.83;56.83;100884.31;5117510;28;641;-56
2021/09/15 02:36:35;;;;;;;;;;;;;;;20.94;57.00;100890.53;5084245;28;1355;-55
2021/09/15 02:39:19;;;;;;;;;;;;;;;21.31;56.38;100886.06;5116008;28;1910;-63
2021/09/15 02:41:53;;;;;;;;;;;;;;;21.24;56.79;100882.84;5116462;28;1251;-54
2021/09/15 02:44:41;;;;;;;;;;;;;;;21.50;56.04;100884.06;5117049;27;1440;-56
2021/09/15 02:47:23;;;;;;;;;;;;;;;21.07;56.86;100883.41;5116304;27;1239;-55
2021/09/15 02:50:21;;;;;;;;;;;;;;;20.52;54.60;100885.59;5104586;28;1054;-49
2021/09/15 02:52:57;;;;;;;;;;;;;;;19.86;51.81;100872.63;5115732;28;1227;-57
2021/09/15 02:55:52;;;;;;;;;;;;;;;19.09;48.79;100880.47;5049304;28;1256;-54
2021/09/15 02:58:55;;;;;;;;;;;;;;;18.87;46.11;100874.56;5093565;28;1971;-55
2021/09/15 03:01:34;;;;;;;;;;;;;;;18.82;48.45;100883.69;5077429;28;1224;-59
2021/09/15 03:04:18;;;;;;;;;;;;;;;19.37;52.03;100886.31;5109931;28;1059;-58
2021/09/15 03:06:58;;;;;;;;;;;;;;;19.75;53.98;100891.19;5115604;28;1149;-47
2021/09/15 03:09:29;;;;;;;;;;;;;;;20.01;55.53;100891.75;5115414;28;1258;-55
2021/09/15 03:11:55;;;;;;;;;;;;;;;20.21;56.30;100895.38;5116603;28;787;-48
2021/09/15 03:14:21;;;;;;;;;;;;;;;20.45;56.80;100889.81;5116284;27;950;-55
2021/09/15 03:16:46;;;;;;;;;;;;;;;21.05;55.62;100900.28;5115203;28;1171;-56
2021/09/15 03:19:12;;;;;;;;;;;;;;;21.00;56.37;100892.09;5115199;27;1971;-58
2021/09/15 03:21:41;;;;;;;;;;;;;;;21.18;56.36;100902.31;5104959;27;1645;-55
2021/09/15 03:24:08;;;;;;;;;;;;;;;21.40;56.07;100898.06;5115148;28;1304;-56
2021/09/15 03:26:34;;;;;;;;;;;;;;;21.34;56.40;100899.28;5115344;28;1172;-53
2021/09/15 03:29:00;;;;;;;;;;;;;;;21.57;56.06;100907.75;5134864;27;1157;-56
2021/09/15 03:31:26;;;;;;;;;;;;;;;21.71;55.10;100911.34;5135290;27;1509;-56
2021/09/15 03:33:52;;;;;;;;;;;;;;;21.06;54.88;100913.00;5135917;27;1175;-56
2021/09/15 03:36:18;;;;;;;;;;;;;;;20.25;53.93;100913.00;5118735;27;1145;-55
2021/09/15 03:38:44;;;;;;;;;;;;;;;19.93;51.86;100917.25;5135222;27;1909;-57
2021/09/15 03:41:10;;;;;;;;;;;;;;;19.55;50.00;100917.88;5136790;27;822;-54
2021/09/15 03:43:36;;;;;;;;;;;;;;;19.27;48.57;100916.75;5133352;27;1104;-53
2021/09/15 03:46:02;;;;;;;;;;;;;;;19.14;47.96;100921.78;5115264;28;1084;-47
2021/09/15 03:48:27;;;;;;;;;;;;;;;19.09;49.06;100916.31;5122199;27;1259;-55
2021/09/15 03:50:53;;;;;;;;;;;;;;;19.43;50.90;100922.94;5156620;27;1124;-44
2021/09/15 03:53:21;;;;;;;;;;;;;;;19.96;52.76;100913.88;5098868;28;1173;-51
2021/09/15 03:55:47;;;;;;;;;;;;;;;19.97;55.26;100919.13;5125281;27;1362;-51
2021/09/15 03:58:12;;;;;;;;;;;;;;;20.17;56.46;100920.84;5143447;27;1909;-56
2021/09/15 04:00:38;;;;;;;;;;;;;;;20.46;56.97;100925.44;5145420;27;1311;-56
2021/09/15 04:03:04;;;;;;;;;;;;;;;20.88;56.46;100922.13;5144659;27;1331;-54
2021/09/15 04:05:31;;;;;;;;;;;;;;;20.83;57.27;100923.84;5115190;28;1212;-54
2021/09/15 04:07:57;;;;;;;;;;;;;;;21.08;57.09;100930.09;5152801;27;1645;-57
2021/09/15 04:10:22;;;;;;;;;;;;;;;21.05;57.50;100930.69;5142750;27;1226;-44
2021/09/15 04:12:48;;;;;;;;;;;;;;;20.94;58.05;100929.22;5140630;27;1394;-54
2021/09/15 04:15:14;;;;;;;;;;;;;;;20.80;57.47;100935.50;5100839;28;1268;-43
2021/09/15 04:17:41;;;;;;;;;;;;;;;20.30;55.33;100932.25;5137794;27;1980;-52
2021/09/15 04:20:08;;;;;;;;;;;;;;;19.91;51.89;100936.00;5136164;27;1486;-55
2021/09/15 04:22:36;;;;;;;;;;;;;;;19.24;49.83;100939.38;5125995;27;1486;-59
2021/09/15 04:32:58;;;;;;;;;;;;;;;19.53;53.10;100944.94;5134523;28;1347;-59
2021/09/15 04:35:24;;;;;;;;;;;;;;;19.71;55.24;100940.59;5130806;28;1248;-57
2021/09/15 04:37:50;;;;;;;;;;;;;;;19.97;56.32;100951.41;5134546;28;1930;-56
2021/09/15 04:40:16;;;;;;;;;;;;;;;20.05;57.62;100953.53;5154072;27;1163;-57
2021/09/15 04:42:42;;;;;;;;;;;;;;;20.41;57.41;100946.75;5150817;27;802;-56
2021/09/15 04:45:10;;;;;;;;;;;;;;;20.46;58.07;100952.25;5134600;27;1152;-57
2021/09/15 04:47:36;;;;;;;;;;;;;;;20.48;58.70;100950.81;5139611;27;1125;-48
2021/09/15 04:50:01;;;;;;;;;;;;;;;20.64;58.76;100950.63;5146413;27;1487;-50
2021/09/15 04:52:27;;;;;;;;;;;;;;;20.81;58.44;100959.25;5155165;27;1361;-57
2021/09/15 04:54:52;;;;;;;;;;;;;;;20.95;58.49;100966.81;5144680;27;1341;-55
2021/09/15 04:57:18;;;;;;;;;;;;;;;21.17;57.89;100967.00;5138171;27;772;-52
2021/09/15 04:59:44;;;;;;;;;;;;;;;21.23;57.73;100975.25;5146026;27;1984;-59
2021/09/15 05:02:09;;;;;;;;;;;;;;;20.90;57.33;100984.28;5140570;27;1401;-58
2021/09/15 05:04:35;;;;;;;;;;;;;;;20.45;55.09;100984.53;5126887;27;1518;-58
2021/09/15 05:07:19;;;;;;;;;;;;;;;19.78;51.96;100985.25;5149511;27;1389;-58
2021/09/15 05:09:47;;;;;;;;;;;;;;;19.13;49.88;100994.56;5152777;27;1406;-57
2021/09/15 05:12:13;;;;;;;;;;;;;;;18.79;47.80;100989.78;5148086;27;1402;-55
2021/09/15 05:14:38;;;;;;;;;;;;;;;18.81;46.44;100992.25;5141794;27;1224;-58
2021/09/15 05:17:04;;;;;;;;;;;;;;;18.95;48.83;100998.81;5152697;27;1539;-58
2021/09/15 05:19:32;;;;;;;;;;;;;;;19.36;52.44;101003.22;5120382;27;1890;-60
2021/09/15 05:21:58;;;;;;;;;;;;;;;19.69;54.34;101008.25;5137865;27;1565;-59
2021/09/15 05:24:23;;;;;;;;;;;;;;;19.78;56.12;100996.28;5137778;27;1164;-58
2021/09/15 05:26:49;;;;;;;;;;;;;;;20.13;56.82;100987.94;5116551;28;1125;-56
2021/09/15 05:29:14;;;;;;;;;;;;;;;20.29;57.29;100994.16;5123270;27;1188;-58
2021/09/15 05:31:40;;;;;;;;;;;;;;;20.40;57.96;100986.53;5138098;27;1239;-57
2021/09/15 05:34:07;;;;;;;;;;;;;;;20.50;58.22;100992.78;5138033;27;1977;-52
2021/09/15 05:36:32;;;;;;;;;;;;;;;20.50;58.77;100991.97;5119955;27;1093;-57
2021/09/15 05:39:09;;;;;;;;;;;;;;;20.77;58.33;100994.13;5141537;27;1917;-58
2021/09/15 05:41:35;;;;;;;;;;;;;;;20.86;58.38;100994.31;5147685;27;1378;-59
2021/09/15 05:44:01;;;;;;;;;;;;;;;20.81;58.71;100994.38;5124951;27;1277;-57
2021/09/15 05:46:27;;;;;;;;;;;;;;;20.79;58.95;100988.28;5144697;27;1218;-60
2021/09/15 05:48:52;;;;;;;;;;;;;;;20.74;57.72;100991.97;5135599;27;1365;-56
2021/09/15 05:51:19;;;;;;;;;;;;;;;20.12;55.50;100994.63;5123657;27;1731;-53
2021/09/15 05:53:47;;;;;;;;;;;;;;;19.89;52.25;100993.44;5116973;28;1402;-57
2021/09/15 05:56:12;;;;;;;;;;;;;;;19.39;50.22;100996.31;5144481;27;1477;-54
2021/09/15 05:58:39;;;;;;;;;;;;;;;19.10;48.05;100995.13;5133293;27;1978;-55
2021/09/15 06:01:07;;;;;;;;;;;;;;;18.90;48.05;101001.59;5133597;27;1363;-58
2021/09/15 06:03:33;;;;;;;;;;;;;;;19.07;50.73;100995.72;5151463;27;1227;-58
2021/09/15 06:06:17;;;;;;;;;;;;;;;19.47;53.83;101002.06;5137176;27;800;-59
2021/09/15 06:08:43;;;;;;;;;;;;;;;19.75;55.60;100996.03;5148850;27;1351;-58
2021/09/15 06:11:09;;;;;;;;;;;;;;;20.08;56.39;100999.06;5145808;27;1285;-57
2021/09/15 06:13:34;;;;;;;;;;;;;;;20.31;57.08;100995.50;5140491;27;1229;-57
2021/09/15 06:16:00;;;;;;;;;;;;;;;20.41;57.79;100990.97;5143376;27;1368;-57
2021/09/15 06:18:28;;;;;;;;;;;;;;;20.57;58.17;101003.47;5136858;27;1914;-57
2021/09/15 06:21:33;;;;;;;;;;;;;;;20.74;58.27;101002.19;5047918;28;1439;-61
2021/09/15 06:24:22;;;;;;;;;;;;;;;20.85;58.30;101006.47;5041111;28;1231;-54
2021/09/15 06:26:48;;;;;;;;;;;;;;;20.81;58.79;101003.47;5106400;27;1386;-58
2021/09/15 06:29:14;;;;;;;;;;;;;;;20.95;58.60;100999.97;5149810;27;1264;-59
2021/09/15 06:31:40;;;;;;;;;;;;;;;21.02;57.65;101004.00;5142216;27;1287;-58
2021/09/15 06:34:06;;;;;;;;;;;;;;;20.34;56.10;101005.97;5146242;27;1274;-49
2021/09/15 06:36:31;;;;;;;;;;;;;;;19.79;54.32;101000.69;5157650;27;827;-48
2021/09/15 06:38:57;;;;;;;;;;;;;;;19.55;51.34;101006.13;5158507;27;1909;-60
2021/09/15 06:41:22;;;;;;;;;;;;;;;19.20;49.09;101004.47;5158102;27;762;-60
2021/09/15 06:43:48;;;;;;;;;;;;;;;18.93;48.03;101002.97;5142691;27;870;-59
2021/09/15 06:46:13;;;;;;;;;;;;;;;18.73;48.09;101004.69;5138316;27;1362;-57
2021/09/15 06:48:39;;;;;;;;;;;;;;;19.22;51.92;101002.22;5155948;27;1523;-59
2021/09/15 06:51:04;;;;;;;;;;;;;;;19.60;54.84;101002.50;5141121;27;1342;-55
2021/09/15 06:53:30;;;;;;;;;;;;;;;19.99;56.31;101005.22;5145528;27;1366;-55
2021/09/15 06:55:56;;;;;;;;;;;;;;;20.20;57.74;100998.66;5137319;27;1520;-59
2021/09/15 06:58:22;;;;;;;;;;;;;;;20.55;57.60;101002.13;5152146;27;1968;-57
2021/09/15 07:00:48;;;;;;;;;;;;;;;20.54;58.34;100997.69;5135137;27;1137;-56
2021/09/15 07:03:13;;;;;;;;;;;;;;;20.72;58.36;101005.25;5143604;27;1410;-56
2021/09/15 07:05:39;;;;;;;;;;;;;;;20.85;58.53;101003.69;5150187;27;1496;-58
2021/09/15 07:08:05;;;;;;;;;;;;;;;20.95;58.54;101002.75;5143894;27;1504;-57
2021/09/15 07:10:33;;;;;;;;;;;;;;;21.13;58.20;100999.16;5141717;27;1482;-56
2021/09/15 07:12:59;;;;;;;;;;;;;;;21.13;58.28;101001.91;5148294;27;1416;-49
2021/09/15 07:15:25;;;;;;;;;;;;;;;20.97;57.93;100995.81;5130007;27;1596;-58
2021/09/15 07:17:53;;;;;;;;;;;;;;;20.68;56.04;100988.44;5149800;27;1975;-53
2021/09/15 07:20:19;;;;;;;;;;;;;;;20.28;54.67;100984.22;5146103;27;873;-55
2021/09/15 07:22:44;;;;;;;;;;;;;;;20.07;52.45;100995.47;5140188;27;1549;-45
2021/09/15 07:25:09;;;;;;;;;;;;;;;19.65;51.43;100983.16;5143538;27;1492;-56
2021/09/15 07:27:35;;;;;;;;;;;;;;;19.52;50.30;100981.03;5141644;27;1323;-56
2021/09/15 07:30:00;;;;;;;;;;;;;;;19.26;49.71;100981.25;5128222;27;1504;-58
2021/09/15 07:32:26;;;;;;;;;;;;;;;19.04;49.26;100976.16;5139982;27;1355;-48
2021/09/15 07:34:52;;;;;;;;;;;;;;;19.25;50.37;100979.59;5135776;27;823;-49
2021/09/15 07:37:18;;;;;;;;;;;;;;;19.51;52.68;100980.22;5141456;27;818;-56
2021/09/15 07:39:44;;;;;;;;;;;;;;;20.01;54.10;100982.84;5157613;27;1909;-47
2021/09/15 07:42:09;;;;;;;;;;;;;;;19.99;56.45;100982.31;5139399;27;795;-58
2021/09/15 07:44:35;;;;;;;;;;;;;;;20.38;56.88;100988.78;5138605;27;1537;-58
2021/09/15 07:47:03;;;;;;;;;;;;;;;20.50;57.76;100984.50;5139355;27;1458;-59
2021/09/15 07:49:36;;;;;;;;;;;;;;;20.70;57.97;100985.38;5142550;27;1401;-58
2021/09/15 07:52:02;;;;;;;;;;;;;;;20.84;58.33;100983.50;5138322;27;1442;-56
2021/09/15 07:54:27;;;;;;;;;;;;;;;20.91;58.73;100985.91;5150406;27;1394;-54
2021/09/15 07:56:54;;;;;;;;;;;;;;;20.65;58.58;100983.47;5145255;27;1400;-52
2021/09/15 07:59:19;;;;;;;;;;;;;;;20.24;55.74;100983.16;5142563;27;1913;-46
2021/09/15 08:01:44;;;;;;;;;;;;;;;19.91;52.52;100982.94;5143646;27;1342;-57
2021/09/15 08:04:10;;;;;;;;;;;;;;;19.51;49.80;100982.19;5150501;27;827;-56
2021/09/15 08:06:35;;;;;;;;;;;;;;;19.04;48.16;100989.94;5143377;27;767;-49
2021/09/15 08:09:01;;;;;;;;;;;;;;;18.75;48.10;100977.69;5157502;27;793;-56
2021/09/15 08:11:26;;;;;;;;;;;;;;;19.11;49.95;100973.91;5156865;27;1053;-59
2021/09/15 08:13:52;;;;;;;;;;;;;;;19.82;53.96;100988.25;5137212;27;1224;-58
2021/09/15 08:16:18;;;;;;;;;;;;;;;20.21;56.69;100983.75;5144310;27;854;-59
2021/09/15 08:18:43;;;;;;;;;;;;;;;20.56;57.80;100978.91;5156617;27;1914;-49
2021/09/15 08:21:09;;;;;;;;;;;;;;;20.82;58.58;100977.47;5153349;27;1607;-47
2021/09/15 08:23:34;;;;;;;;;;;;;;;21.17;58.20;100985.56;5141529;27;815;-46
2021/09/15 08:25:59;;;;;;;;;;;;;;;21.02;59.16;100989.38;5149347;27;810;-59
2021/09/15 08:28:26;;;;;;;;;;;;;;;21.02;58.66;100986.59;5139268;27;1117;-56
2021/09/15 08:30:51;;;;;;;;;;;;;;;20.67;57.42;100983.19;5119811;27;886;-58
2021/09/15 08:33:16;;;;;;;;;;;;;;;20.24;55.09;100983.97;5118208;28;779;-51
2021/09/15 08:35:42;;;;;;;;;;;;;;;19.98;53.01;100980.69;5119726;28;795;-59
2021/09/15 08:38:11;;;;;;;;;;;;;;;19.71;51.26;100970.94;5126944;27;1913;-49
2021/09/15 08:40:36;;;;;;;;;;;;;;;19.41;49.30;100977.56;5138475;27;1497;-60
2021/09/15 08:43:02;;;;;;;;;;;;;;;19.13;47.71;100980.78;5143836;27;1346;-46
2021/09/15 08:45:27;;;;;;;;;;;;;;;18.86;47.21;100974.84;5144341;27;1176;-60
2021/09/15 08:47:53;;;;;;;;;;;;;;;18.84;48.62;100977.91;5144794;27;1636;-54
2021/09/15 08:50:19;;;;;;;;;;;;;;;19.48;51.78;100978.88;5148911;27;1496;-54
2021/09/15 08:52:44;;;;;;;;;;;;;;;19.70;54.70;100979.50;5143825;27;1227;-45
2021/09/15 08:55:10;;;;;;;;;;;;;;;20.07;55.99;100978.91;5154875;27;1400;-59
2021/09/15 08:57:35;;;;;;;;;;;;;;;20.41;56.67;100978.00;5148486;27;766;-45
2021/09/15 09:00:01;;;;;;;;;;;;;;;20.51;57.65;100966.81;5126210;27;1012;-57
2021/09/15 09:02:26;;;;;;;;;;;;;;;20.62;58.35;100961.97;5119045;28;755;-59
2021/09/15 09:04:58;;;;;;;;;;;;;;;20.95;58.02;100964.03;5132735;27;1371;-56
2021/09/15 09:07:24;;;;;;;;;;;;;;;21.10;58.26;100961.06;5140116;27;786;-55
2021/09/15 09:09:53;;;;;;;;;;;;;;;21.17;58.67;100964.25;5138505;27;1236;-45
2021/09/15 09:12:19;;;;;;;;;;;;;;;21.02;58.84;100968.06;5144438;27;1449;-53
2021/09/15 09:14:44;;;;;;;;;;;;;;;20.90;57.67;100983.44;5131276;27;905;-56
2021/09/15 09:17:39;;;;;;;;;;;;;;;20.62;55.33;100977.72;5130927;27;1562;-51
2021/09/15 09:20:13;;;;;;;;;;;;;;;20.21;53.16;100967.19;5130855;27;1207;-59
2021/09/15 09:22:58;;;;;;;;;;;;;;;19.86;51.69;100969.19;5141728;27;1627;-55
2021/09/15 09:25:24;;;;;;;;;;;;;;;19.70;50.25;100969.31;5154752;27;775;-46
2021/09/15 09:27:50;;;;;;;;;;;;;;;19.49;49.67;100974.19;5159897;27;862;-58
2021/09/15 09:30:34;;;;;;;;;;;;;;;19.11;49.77;100972.00;5142103;27;983;-58
2021/09/15 09:32:59;;;;;;;;;;;;;;;19.12;49.17;100970.84;5138925;27;827;-58
2021/09/15 09:35:36;;;;;;;;;;;;;;;19.19;49.71;100969.72;5139682;27;797;-50
2021/09/15 09:38:01;;;;;;;;;;;;;;;19.29;51.17;100977.91;5138102;27;1909;-45
2021/09/15 09:40:28;;;;;;;;;;;;;;;19.34;52.23;100971.56;5139036;27;818;-57
2021/09/15 09:42:54;;;;;;;;;;;;;;;19.42;52.79;100970.91;5138798;27;823;-44
2021/09/15 09:45:21;;;;;;;;;;;;;;;19.40;53.73;100965.69;5137516;27;1140;-55
2021/09/15 09:47:47;;;;;;;;;;;;;;;19.59;53.75;100963.06;5138991;27;802;-52
2021/09/15 09:50:16;;;;;;;;;;;;;;;19.70;53.70;100963.81;5120793;27;798;-58
2021/09/15 09:53:00;;;;;;;;;;;;;;;19.55;54.27;100963.94;5138140;27;1120;-48
2021/09/15 09:55:29;;;;;;;;;;;;;;;19.62;54.04;100965.25;5138509;27;510;-55
2021/09/15 09:57:55;;;;;;;;;;;;;;;19.64;54.13;100960.28;5138829;27;1979;-47
2021/09/15 10:00:21;;;;;;;;;;;;;;;19.71;54.07;100956.34;5136667;27;1035;-47
2021/09/15 10:02:46;;;;;;;;;;;;;;;19.62;54.59;100945.13;5138750;27;751;-56
2021/09/15 10:05:15;;;;;;;;;;;;;;;19.75;53.88;100949.94;5138750;27;783;-55
2021/09/15 10:07:41;;;;;;;;;;;;;;;19.72;54.03;100950.53;5138721;27;834;-56
2021/09/15 10:10:09;;;;;;;;;;;;;;;19.79;53.88;100951.03;5138271;27;1069;-57
2021/09/15 10:12:34;;;;;;;;;;;;;;;19.73;54.14;100945.84;5137655;27;807;-46
2021/09/15 10:15:00;;;;;;;;;;;;;;;19.60;54.49;100939.06;5136734;27;970;-55
2021/09/15 10:17:26;;;;;;;;;;;;;;;19.76;54.05;100940.56;5137017;27;840;-50
2021/09/15 10:19:52;;;;;;;;;;;;;;;19.67;54.43;100939.56;5137010;27;1906;-53
2021/09/15 10:22:27;;;;;;;;;;;;;;;19.73;54.53;100943.09;5138213;27;1716;-55
2021/09/15 10:24:56;;;;;;;;;;;;;;;19.81;54.04;100950.75;5138023;27;775;-53
2021/09/15 10:27:22;;;;;;;;;;;;;;;19.67;54.57;100945.88;5138494;27;834;-46
2021/09/15 10:30:00;;;;;;;;;;;;;;;19.78;54.16;100948.53;5125999;27;913;-55
2021/09/15 10:32:32;;;;;;;;;;;;;;;19.82;53.84;100936.69;5117556;28;819;-49
2021/09/15 10:34:58;;;;;;;;;;;;;;;19.81;53.90;100942.47;5117700;28;752;-56
2021/09/15 10:37:23;;;;;;;;;;;;;;;19.87;53.96;100940.50;5117626;28;803;-49
2021/09/15 10:39:55;;;;;;;;;;;;;;;19.65;54.29;100950.84;5117459;28;1987;-55
2021/09/15 10:42:39;;;;;;;;;;;;;;;19.77;54.01;100946.91;5116227;28;764;-51
2021/09/15 10:45:07;;;;;;;;;;;;;;;19.81;53.84;100946.06;5116354;27;997;-45
2021/09/15 10:47:35;;;;;;;;;;;;;;;19.66;54.42;100946.19;5116986;28;782;-52
2021/09/15 10:50:01;;;;;;;;;;;;;;;19.92;53.45;100943.19;5117398;28;822;-45
2021/09/15 10:52:26;;;;;;;;;;;;;;;19.71;54.09;100939.78;5109024;28;1084;-55
2021/09/15 10:54:55;;;;;;;;;;;;;;;19.67;54.22;100942.31;5116966;28;766;-45
2021/09/15 10:57:21;;;;;;;;;;;;;;;19.67;54.41;100931.28;5117145;28;842;-55
2021/09/15 10:59:53;;;;;;;;;;;;;;;19.69;54.16;100929.03;5116837;27;1918;-52
2021/09/15 11:02:25;;;;;;;;;;;;;;;19.61;54.55;100927.72;5117168;28;782;-59
2021/09/15 11:04:51;;;;;;;;;;;;;;;19.76;53.98;100920.44;5115457;27;862;-54
2021/09/15 11:07:35;;;;;;;;;;;;;;;19.80;54.00;100925.09;5117186;28;514;-57
2021/09/15 11:10:00;;;;;;;;;;;;;;;19.75;54.14;100922.34;5116706;28;1142;-49
2021/09/15 11:12:55;;;;;;;;;;;;;;;19.73;54.30;100923.78;5115678;28;800;-55
2021/09/15 11:15:24;;;;;;;;;;;;;;;19.65;54.16;100928.78;5108060;27;1268;-51
2021/09/15 11:17:53;;;;;;;;;;;;;;;19.79;54.04;100926.19;5116608;28;1976;-57
2021/09/15 11:20:19;;;;;;;;;;;;;;;19.81;53.96;100929.50;5116650;28;779;-57
2021/09/15 11:22:45;;;;;;;;;;;;;;;19.71;54.31;100924.03;5135597;27;1648;-58
2021/09/15 11:25:14;;;;;;;;;;;;;;;19.68;54.23;100916.34;5136743;27;755;-60
2021/09/15 11:27:40;;;;;;;;;;;;;;;19.67;54.45;100917.50;5135976;27;782;-58
2021/09/15 11:30:05;;;;;;;;;;;;;;;19.70;54.38;100925.19;5135676;27;930;-46
2021/09/15 11:32:31;;;;;;;;;;;;;;;19.81;54.07;100918.47;5136924;27;802;-58
2021/09/15 11:34:56;;;;;;;;;;;;;;;19.83;53.84;100916.22;5135396;27;819;-58
2021/09/15 11:37:26;;;;;;;;;;;;;;;19.68;54.24;100921.88;5137159;27;859;-59
2021/09/15 11:40:03;;;;;;;;;;;;;;;19.72;54.17;100922.94;5136403;27;1976;-46
2021/09/15 11:42:35;;;;;;;;;;;;;;;19.70;54.24;100908.63;5137192;27;770;-58
2021/09/15 11:45:13;;;;;;;;;;;;;;;19.70;54.17;100903.09;5135291;27;957;-52
2021/09/15 11:47:41;;;;;;;;;;;;;;;19.69;53.92;100912.50;5136616;27;830;-50
2021/09/15 11:50:19;;;;;;;;;;;;;;;19.63;54.19;100903.44;5114827;28;933;-55
2021/09/15 11:52:46;;;;;;;;;;;;;;;19.76;53.82;100899.16;5116190;28;817;-57
2021/09/15 11:55:14;;;;;;;;;;;;;;;19.74;53.66;100897.81;5113044;28;883;-55
2021/09/15 11:57:54;;;;;;;;;;;;;;;19.79;53.39;100892.25;5116315;28;830;-50
2021/09/15 12:00:19;;;;;;;;;;;;;;;19.61;54.14;100893.81;5115887;27;1016;-57
2021/09/15 12:02:45;;;;;;;;;;;;;;;19.64;53.89;100901.50;5116304;28;743;-57
2021/09/15 12:05:11;;;;;;;;;;;;;;;19.55;54.06;100884.75;5114760;28;830;-54
2021/09/15 12:07:37;;;;;;;;;;;;;;;19.66;53.96;100885.50;5116052;28;866;-58
2021/09/15 12:10:06;;;;;;;;;;;;;;;19.62;54.10;100874.22;5114719;28;997;-48
2021/09/15 12:12:31;;;;;;;;;;;;;;;19.54;54.05;100885.88;5115089;28;771;-47
2021/09/15 12:14:57;;;;;;;;;;;;;;;19.49;54.36;100878.47;5127305;27;1340;-58
2021/09/15 12:17:23;;;;;;;;;;;;;;;19.67;54.06;100881.63;5134735;28;752;-57
2021/09/15 12:19:48;;;;;;;;;;;;;;;19.51;54.34;100877.38;5136956;27;1973;-58
2021/09/15 12:22:21;;;;;;;;;;;;;;;19.52;54.38;100876.25;5136443;27;1560;-56
2021/09/15 12:24:59;;;;;;;;;;;;;;;19.59;54.15;100873.97;5136397;28;830;-56
2021/09/15 12:27:24;;;;;;;;;;;;;;;19.54;54.38;100871.28;5136293;27;510;-57
2021/09/15 12:29:56;;;;;;;;;;;;;;;19.64;54.04;100868.41;5124082;27;973;-49
2021/09/15 12:32:29;;;;;;;;;;;;;;;19.71;53.90;100860.59;5115885;28;839;-54
2021/09/15 12:34:54;;;;;;;;;;;;;;;19.56;54.29;100852.47;5114609;28;673;-53
2021/09/15 12:37:20;;;;;;;;;;;;;;;19.56;54.33;100858.00;5114705;28;782;-55
2021/09/15 12:39:46;;;;;;;;;;;;;;;19.70;53.95;100847.09;5115792;28;1914;-55
2021/09/15 12:42:19;;;;;;;;;;;;;;;19.55;54.54;100839.81;5115682;28;731;-56
2021/09/15 12:44:44;;;;;;;;;;;;;;;19.47;54.66;100847.63;5125419;27;1012;-52
2021/09/15 12:47:10;;;;;;;;;;;;;;;19.60;54.62;100842.50;5136083;27;779;-56
2021/09/15 12:49:37;;;;;;;;;;;;;;;19.73;54.17;100841.00;5136205;27;794;-55
2021/09/15 12:52:16;;;;;;;;;;;;;;;19.68;54.37;100844.63;5135246;28;739;-54
2021/09/15 12:54:54;;;;;;;;;;;;;;;19.55;54.63;100845.34;5136584;27;834;-54
2021/09/15 12:57:21;;;;;;;;;;;;;;;19.61;54.66;100838.66;5136010;27;747;-57
2021/09/15 12:59:47;;;;;;;;;;;;;;;19.53;54.74;100833.75;5134612;28;1910;-56
2021/09/15 13:02:31;;;;;;;;;;;;;;;19.64;54.58;100840.81;5134324;28;959;-56
2021/09/15 13:04:59;;;;;;;;;;;;;;;19.54;54.87;100847.25;5136417;27;801;-55
2021/09/15 13:07:25;;;;;;;;;;;;;;;19.66;54.45;100852.38;5137030;27;767;-56
2021/09/15 13:09:51;;;;;;;;;;;;;;;19.49;55.11;100850.91;5138251;27;1041;-56